Port Rexton, Canada
Current Conditions -  °F | °C
As of 5:00 PM on Thursday 18 Dec 2014 (Local Time) from CYYT Reporting Station
Drizzle Drizzle  
Wind Chill: 31°   Ceiling: 200
Heat Index: 41°   Visibility: 0.5mi
Dew Point: 41°   Wind: 23mph
Humidity: 100%   Direction: 150°SSE
Pressure: 29.83"   Gusts: 33mph
Location:  48.4°N, 53.35°W
Report Text: CYYT 182000Z 15020G29KT 1/2SM R11/6000FT/D R16/P6000FT/N -DZ FG VV002 05/05 A2983 RMK FG8 SLP106
Loading
Personal Weather Stations






























Interactive Weather Map New forecast layout! Learn more

10-Day Weather Forecast

Advertisements
Track Severe Weather on mobile